Ocean Giant — WDG4379 — position and weather

sailwx.info

Track history (hours):
 
Tides and Currents Weather Stations Pressure Air Temp Water Temp Dewpoint Dewpoint Depression Visibility Wind Speed Wind Dir Waves Ship Positions

Ocean Giant

Owner: Seabulk Fleet Management, Tampa, FL. More information available from US FCC via Universal Licensing System and Coast Guard Vessel Documentation Center.

Last reported at 2017-Dec-18 16:29 UTC. Time now 2017-Dec-18 16:56 UTC.
Position N 34°08' W 119°14'.

Length 170 m; draft 7.8 m.

Type: Ship. MMSI: 367535950.

Date/timePositionNaut miles runAvg speedWind from/ knotsBaromVisibWave heightAir tempDewpointWater temp
2017-Dec-18 16:29N 34°08' W 119°14'2 4.8
2017-Dec-18 15:59N 34°06' W 119°15'1 1.8
2017-Dec-18 15:30N 34°05' W 119°16'3 6.2
2017-Dec-18 14:59N 34°03' W 119°19'4 7.8
2017-Dec-18 14:29N 34°04' W 119°23'4 8.0
2017-Dec-18 13:58N 34°05' W 119°28'4 8.5
2017-Dec-18 13:30N 34°06' W 119°33'2 4.0
2017-Dec-18 13:00N 34°08' W 119°31'5 9.9
2017-Dec-18 12:30N 34°06' W 119°25'510.5
2017-Dec-18 12:00N 34°05' W 119°19'610.3
2017-Dec-18 11:26N 34°03' W 119°13'4 9.8
2017-Dec-18 11:00N 34°01' W 119°08'5 9.8
2017-Dec-18 10:30N 33°58' W 119°03'2 3.4
2017-Dec-18 09:58N 33°57' W 119°04'4 8.8
2017-Dec-18 09:29N 33°59' W 119°09'4 8.7
2017-Dec-18 08:59N 34°01' W 119°13'4 8.3
2017-Dec-18 08:28N 34°03' W 119°18'4 8.2
2017-Dec-18 08:00N 34°04' W 119°23'5 9.3
2017-Dec-18 07:29N 34°05' W 119°28'4 9.0
2017-Dec-18 06:59N 34°06' W 119°33'4 8.8
2017-Dec-18 06:29N 34°08' W 119°39'5 8.6
2017-Dec-18 05:58N 34°09' W 119°44'3 6.0
2017-Dec-18 05:29N 34°10' W 119°41'5 9.7
2017-Dec-18 04:59N 34°09' W 119°35'5 9.9
2017-Dec-18 04:30N 34°08' W 119°30'510.1
2017-Dec-18 03:59N 34°06' W 119°23'510.1
2017-Dec-18 03:29N 34°05' W 119°18'510.1
2017-Dec-18 03:00N 34°03' W 119°12'5 9.7
2017-Dec-18 02:29N 34°00' W 119°07'5 9.6
2017-Dec-18 01:59N 33°58' W 119°02'3 6.2
2017-Dec-18 01:27N 33°55' W 119°00'4 9.0
2017-Dec-18 01:00N 33°57' W 119°04'4 8.8
2017-Dec-18 00:30N 33°59' W 119°09'4 8.6
2017-Dec-18 00:00N 34°01' W 119°14'4 8.4
2017-Dec-17 23:30N 34°03' W 119°18'3 6.0
2017-Dec-17 23:00N 34°06' W 119°19'2 3.0
2017-Dec-17 22:29N 34°05' W 119°18'2 4.2
2017-Dec-17 21:58N 34°06' W 119°15'4 8.8
2017-Dec-17 21:30N 34°02' W 119°13'3 5.8
2017-Dec-17 20:58N 34°02' W 119°17'3 6.8
2017-Dec-17 20:30N 34°04' W 119°20'4 8.5
2017-Dec-17 19:59N 34°04' W 119°15'5 9.6
2017-Dec-17 19:28N 34°02' W 119°10'510.9
2017-Dec-17 19:00N 33°59' W 119°04'611.7
2017-Dec-17 18:28N 33°56' W 118°58'612.1
2017-Dec-17 18:00N 33°53' W 118°52'611.9
2017-Dec-17 17:30N 33°50' W 118°46'611.6
2017-Dec-17 17:00N 33°47' W 118°40'611.7
2017-Dec-17 16:30N 33°45' W 118°34'612.8
2017-Dec-17 16:00N 33°41' W 118°27'15 0.6
2017-Dec-16 14:36N 33°41' W 118°09'0 0.1
2017-Dec-16 14:30N 33°41' W 118°09'0 0.0
2017-Dec-16 14:00N 33°41' W 118°09'3 1.5
2017-Dec-16 12:02N 33°38' W 118°09'0 6.7
2017-Dec-16 12:00N 33°38' W 118°09'5 9.3
2017-Dec-16 11:30N 33°34' W 118°09'510.9
2017-Dec-16 11:00N 33°28' W 118°07'611.0
2017-Dec-16 10:30N 33°23' W 118°04'611.4
2017-Dec-16 10:00N 33°18' W 118°02'611.3
2017-Dec-16 09:30N 33°13' W 117°59'611.2
2017-Dec-16 09:01N 33°08' W 117°56'611.0
2017-Dec-16 08:30N 33°03' W 117°54'511.0
2017-Dec-16 08:00N 32°58' W 117°51'711.0
2017-Dec-16 07:24N 32°51' W 117°48'410.8
2017-Dec-16 07:00N 32°47' W 117°48'510.7
2017-Dec-16 06:30N 32°42' W 117°48'611.1
2017-Dec-16 06:00N 32°36' W 117°46'611.4
2017-Dec-16 05:30N 32°31' W 117°44'612.2
2017-Dec-16 05:01N 32°25' W 117°41'612.9
2017-Dec-16 04:30N 32°19' W 117°39'612.7
2017-Dec-16 04:00N 32°13' W 117°38'612.5
2017-Dec-16 03:30N 32°07' W 117°37'612.2
2017-Dec-16 03:00N 32°01' W 117°35'3913.1
2017-Dec-16 00:00N 31°24' W 117°18'23613.1 340 / 91016.610.8 19.412.915.7
2017-Dec-15 06:00N 27°36' W 116°06'7111.9 350 / 101016.827.0 18.514.416.8
2017-Dec-15 00:00N 26°30' W 115°36'8113.5 350 / 101014.827.0 19.414.817.2
2017-Dec-14 18:00N 25°12' W 115°12'8013.3 350 / 81016.527.0 21.116.518.3
2017-Dec-14 12:00N 23°54' W 114°54'8113.5 330 / 5 27.0 21.116.5
2017-Dec-14 06:00N 22°36' W 114°30'6110.1 350 / 81016.027.0 22.215.820.9
2017-Dec-14 00:00N 21°42' W 114°00'17514.6 360 / 141014.227.0 24.415.222.0
2017-Dec-13 12:00N 20°36' W 111°06'8213.7 010 / 111014.2 5.4 25.620.822.4
2017-Dec-13 06:00N 20°12' W 109°42'8714.5 310 / 121015.027.0 26.719.924.4
2017-Dec-13 00:00N 19°36' W 108°18'25514.2 360 / 151012.410.8 27.821.124.6
2017-Dec-12 06:00N 18°06' W 104°06'8814.6 290 / 121015.627.0 27.821.125.1
2017-Dec-12 00:00N 17°30' W 102°42'9115.1 270 / 111013.210.8 28.920.527.2
2017-Dec-11 18:00N 16°48' W 101°18'55513.2 290 / 71017.927.0 28.923.327.4
2017-Dec-10 00:00N 13°54' W 092°12'   040 / 71011.4 5.4 31.121.227.7
Track history (hours):
 
Tides and Currents Weather Stations Pressure Air Temp Water Temp Dewpoint Dewpoint Depression Visibility Wind Speed Wind Dir Waves Ship Positions

Ocean Giant

Owner: Seabulk Fleet Management, Tampa, FL. More information available from US FCC via Universal Licensing System and Coast Guard Vessel Documentation Center.

Last reported at 2017-Dec-18 16:29 UTC. Time now 2017-Dec-18 16:56 UTC.
Position N 34°08' W 119°14'.

Length 170 m; draft 7.8 m.

Type: Ship. MMSI: 367535950.

Date/timePositionNaut miles runAvg speedWind from/ knotsBaromVisibWave heightAir tempDewpointWater temp
2017-Dec-18 16:29N 34°08' W 119°14'2 4.8
2017-Dec-18 15:59N 34°06' W 119°15'1 1.8
2017-Dec-18 15:30N 34°05' W 119°16'3 6.2
2017-Dec-18 14:59N 34°03' W 119°19'4 7.8
2017-Dec-18 14:29N 34°04' W 119°23'4 8.0
2017-Dec-18 13:58N 34°05' W 119°28'4 8.5
2017-Dec-18 13:30N 34°06' W 119°33'2 4.0
2017-Dec-18 13:00N 34°08' W 119°31'5 9.9
2017-Dec-18 12:30N 34°06' W 119°25'510.5
2017-Dec-18 12:00N 34°05' W 119°19'610.3
2017-Dec-18 11:26N 34°03' W 119°13'4 9.8
2017-Dec-18 11:00N 34°01' W 119°08'5 9.8
2017-Dec-18 10:30N 33°58' W 119°03'2 3.4
2017-Dec-18 09:58N 33°57' W 119°04'4 8.8
2017-Dec-18 09:29N 33°59' W 119°09'4 8.7
2017-Dec-18 08:59N 34°01' W 119°13'4 8.3
2017-Dec-18 08:28N 34°03' W 119°18'4 8.2
2017-Dec-18 08:00N 34°04' W 119°23'5 9.3
2017-Dec-18 07:29N 34°05' W 119°28'4 9.0
2017-Dec-18 06:59N 34°06' W 119°33'4 8.8
2017-Dec-18 06:29N 34°08' W 119°39'5 8.6
2017-Dec-18 05:58N 34°09' W 119°44'3 6.0
2017-Dec-18 05:29N 34°10' W 119°41'5 9.7
2017-Dec-18 04:59N 34°09' W 119°35'5 9.9
2017-Dec-18 04:30N 34°08' W 119°30'510.1
2017-Dec-18 03:59N 34°06' W 119°23'510.1
2017-Dec-18 03:29N 34°05' W 119°18'510.1
2017-Dec-18 03:00N 34°03' W 119°12'5 9.7
2017-Dec-18 02:29N 34°00' W 119°07'5 9.6
2017-Dec-18 01:59N 33°58' W 119°02'3 6.2
2017-Dec-18 01:27N 33°55' W 119°00'4 9.0
2017-Dec-18 01:00N 33°57' W 119°04'4 8.8
2017-Dec-18 00:30N 33°59' W 119°09'4 8.6
2017-Dec-18 00:00N 34°01' W 119°14'4 8.4
2017-Dec-17 23:30N 34°03' W 119°18'3 6.0
2017-Dec-17 23:00N 34°06' W 119°19'2 3.0
2017-Dec-17 22:29N 34°05' W 119°18'2 4.2
2017-Dec-17 21:58N 34°06' W 119°15'4 8.8
2017-Dec-17 21:30N 34°02' W 119°13'3 5.8
2017-Dec-17 20:58N 34°02' W 119°17'3 6.8
2017-Dec-17 20:30N 34°04' W 119°20'4 8.5
2017-Dec-17 19:59N 34°04' W 119°15'5 9.6
2017-Dec-17 19:28N 34°02' W 119°10'510.9
2017-Dec-17 19:00N 33°59' W 119°04'611.7
2017-Dec-17 18:28N 33°56' W 118°58'612.1
2017-Dec-17 18:00N 33°53' W 118°52'611.9
2017-Dec-17 17:30N 33°50' W 118°46'611.6
2017-Dec-17 17:00N 33°47' W 118°40'611.7
2017-Dec-17 16:30N 33°45' W 118°34'612.8
2017-Dec-17 16:00N 33°41' W 118°27'15 0.6
2017-Dec-16 14:36N 33°41' W 118°09'0 0.1
2017-Dec-16 14:30N 33°41' W 118°09'0 0.0
2017-Dec-16 14:00N 33°41' W 118°09'3 1.5
2017-Dec-16 12:02N 33°38' W 118°09'0 6.7
2017-Dec-16 12:00N 33°38' W 118°09'5 9.3
2017-Dec-16 11:30N 33°34' W 118°09'510.9
2017-Dec-16 11:00N 33°28' W 118°07'611.0
2017-Dec-16 10:30N 33°23' W 118°04'611.4
2017-Dec-16 10:00N 33°18' W 118°02'611.3
2017-Dec-16 09:30N 33°13' W 117°59'611.2
2017-Dec-16 09:01N 33°08' W 117°56'611.0
2017-Dec-16 08:30N 33°03' W 117°54'511.0
2017-Dec-16 08:00N 32°58' W 117°51'711.0
2017-Dec-16 07:24N 32°51' W 117°48'410.8
2017-Dec-16 07:00N 32°47' W 117°48'510.7
2017-Dec-16 06:30N 32°42' W 117°48'611.1
2017-Dec-16 06:00N 32°36' W 117°46'611.4
2017-Dec-16 05:30N 32°31' W 117°44'612.2
2017-Dec-16 05:01N 32°25' W 117°41'612.9
2017-Dec-16 04:30N 32°19' W 117°39'612.7
2017-Dec-16 04:00N 32°13' W 117°38'612.5
2017-Dec-16 03:30N 32°07' W 117°37'612.2
2017-Dec-16 03:00N 32°01' W 117°35'3913.1
2017-Dec-16 00:00N 31°24' W 117°18'23613.1 340 / 91016.610.8 19.412.915.7
2017-Dec-15 06:00N 27°36' W 116°06'7111.9 350 / 101016.827.0 18.514.416.8
2017-Dec-15 00:00N 26°30' W 115°36'8113.5 350 / 101014.827.0 19.414.817.2
2017-Dec-14 18:00N 25°12' W 115°12'8013.3 350 / 81016.527.0 21.116.518.3
2017-Dec-14 12:00N 23°54' W 114°54'8113.5 330 / 5 27.0 21.116.5
2017-Dec-14 06:00N 22°36' W 114°30'6110.1 350 / 81016.027.0 22.215.820.9
2017-Dec-14 00:00N 21°42' W 114°00'17514.6 360 / 141014.227.0 24.415.222.0
2017-Dec-13 12:00N 20°36' W 111°06'8213.7 010 / 111014.2 5.4 25.620.822.4
2017-Dec-13 06:00N 20°12' W 109°42'8714.5 310 / 121015.027.0 26.719.924.4
2017-Dec-13 00:00N 19°36' W 108°18'25514.2 360 / 151012.410.8 27.821.124.6
2017-Dec-12 06:00N 18°06' W 104°06'8814.6 290 / 121015.627.0 27.821.125.1
2017-Dec-12 00:00N 17°30' W 102°42'9115.1 270 / 111013.210.8 28.920.527.2
2017-Dec-11 18:00N 16°48' W 101°18'55513.2 290 / 71017.927.0 28.923.327.4
2017-Dec-10 00:00N 13°54' W 092°12'   040 / 71011.4 5.4 31.121.227.7

Dump ship's entire track history